Chattanooga Metropolitan Airport Airport (CHA)

 

Airport Diagram
Current Weather/Forecast (VFR Conditions)
METAR KCHA 081153Z 00000KT 10SM FEW250 02/M01 A3016 RMK AO2 SLP216 T00171011 10044 20006 53003
TAF KCHA 081122Z 0812/0912 18004KT P6SM SCT250 FM081500 18010KT P6SM SCT250 FM090300 17008KT P6SM BKN050 FM090800 17008KT 6SM -SHRA BR OVC015

All Charts
General
Chart Name Download
AIRPORT DIAGRAM
TAKEOFF MINIMUMS
ALTERNATE MINIMUMS

Departures
Chart Name Download
CHATTANOOGA EIGHT

Approaches
Chart Name Download
ILS OR LOC RWY 02
ILS OR LOC RWY 20
ILS RWY 20 (CAT II)
RNAV (GPS) RWY 02
RNAV (GPS) RWY 15
RNAV (GPS) RWY 20
RNAV (GPS) RWY 33


Inbound Traffic (Arrivals)

No inbound traffic.


Outbound Traffic (Departures)

No outbound traffic.